Time;durP1;ratioP1;P1;durP2;ratioP2;P2;SDS_P1;SDS_P2;PMS_P1;PMS_P2;Temp;Humidity;BMP_temperature;BMP_pressure;BME280_temperature;BME280_humidity;BME280_pressure;Samples;Min_cycle;Max_cycle;Signal;HPM_P1;HPM_P2
2022/08/17 00:00:38;;;;;;;41.17;36.50;;;;;;;21.66;72.58;100841.47;4997166;28;20033;-60
2022/08/17 00:03:16;;;;;;;39.92;35.85;;;;;;;21.57;72.84;100827.63;5015369;28;20079;-60
2022/08/17 00:05:42;;;;;;;41.58;37.30;;;;;;;21.58;73.27;100834.09;5015016;28;20021;-60
2022/08/17 00:08:09;;;;;;;41.30;37.20;;;;;;;21.58;73.25;100840.56;5014947;28;20034;-60
2022/08/17 00:10:35;;;;;;;41.13;36.92;;;;;;;21.54;73.17;100825.59;5015316;28;20092;-60
2022/08/17 00:13:05;;;;;;;41.08;36.75;;;;;;;21.48;73.45;100830.75;5014972;28;20478;-60
2022/08/17 00:15:30;;;;;;;40.60;36.50;;;;;;;21.49;73.28;100829.53;5015303;28;20159;-61
2022/08/17 00:17:56;;;;;;;41.13;36.92;;;;;;;21.48;73.69;100824.31;5014765;28;20354;-60
2022/08/17 00:20:21;;;;;;;41.25;37.05;;;;;;;21.47;73.69;100828.31;5015076;28;20033;-60
2022/08/17 00:22:46;;;;;;;40.67;36.45;;;;;;;21.45;73.83;100825.06;5014553;28;20025;-59
2022/08/17 00:25:15;;;;;;;42.45;38.10;;;;;;;21.41;74.05;100818.59;5014904;28;20164;-59
2022/08/17 00:27:41;;;;;;;43.03;38.60;;;;;;;21.32;74.28;100814.06;5014566;28;20036;-60
2022/08/17 00:30:09;;;;;;;42.42;38.03;;;;;;;21.27;74.67;100813.59;5014848;28;20022;-59
2022/08/17 00:32:44;;;;;;;41.38;37.08;;;;;;;21.22;74.76;100805.47;5014410;28;20076;-59
2022/08/17 00:35:13;;;;;;;40.92;36.83;;;;;;;21.17;75.13;100803.78;5014815;28;20060;-60
2022/08/17 00:37:39;;;;;;;40.28;36.00;;;;;;;21.24;74.74;100801.09;5015072;28;20049;-59
2022/08/17 00:40:05;;;;;;;41.58;37.42;;;;;;;21.19;75.21;100798.59;5014958;28;20366;-59
2022/08/17 00:42:31;;;;;;;40.78;36.67;;;;;;;21.12;75.20;100795.69;5014607;28;20358;-61
2022/08/17 00:44:57;;;;;;;41.97;37.45;;;;;;;21.16;75.51;100796.56;5014074;28;20029;-59
2022/08/17 00:47:23;;;;;;;41.75;37.53;;;;;;;21.13;75.56;100792.50;5014352;28;20037;-59
2022/08/17 00:49:48;;;;;;;42.50;38.30;;;;;;;21.12;75.67;100784.44;5014318;28;20046;-59
2022/08/17 00:52:20;;;;;;;40.45;36.42;;;;;;;21.14;75.46;100790.50;5014481;28;20164;-59
2022/08/17 00:54:51;;;;;;;41.78;37.58;;;;;;;21.10;75.36;100784.00;5013663;28;20022;-59
2022/08/17 00:57:28;;;;;;;39.63;35.63;;;;;;;21.19;74.27;100791.00;5014461;28;20026;-60
2022/08/17 00:59:59;;;;;;;40.30;36.15;;;;;;;21.16;74.47;100777.66;5014080;28;20453;-60
2022/08/17 01:02:26;;;;;;;40.17;35.67;;;;;;;21.24;74.27;100783.38;5013902;28;20208;-60
2022/08/17 01:04:55;;;;;;;41.55;37.22;;;;;;;21.19;74.56;100782.53;5013971;28;20030;-60
2022/08/17 01:07:24;;;;;;;40.78;36.65;;;;;;;21.21;74.63;100792.63;5013647;28;20033;-60
2022/08/17 01:09:50;;;;;;;42.28;38.08;;;;;;;21.18;74.66;100789.38;5013701;28;20041;-60
2022/08/17 01:12:16;;;;;;;39.80;35.60;;;;;;;21.24;74.21;100789.84;5013642;28;20029;-60
2022/08/17 01:14:41;;;;;;;40.95;36.55;;;;;;;21.13;74.78;100786.88;5013679;28;20022;-60
2022/08/17 01:17:07;;;;;;;40.22;35.90;;;;;;;21.16;74.19;100785.31;4995715;28;20378;-60
2022/08/17 01:19:38;;;;;;;41.15;36.92;;;;;;;21.13;74.17;100781.25;5013533;28;20029;-60
2022/08/17 01:22:17;;;;;;;40.00;35.90;;;;;;;21.09;74.25;100776.75;5014214;28;20349;-59
2022/08/17 01:24:52;;;;;;;41.42;37.13;;;;;;;21.05;74.47;100771.09;5014197;28;20029;-60
2022/08/17 01:27:19;;;;;;;41.80;37.60;;;;;;;21.06;74.91;100778.34;5013454;28;20465;-60
2022/08/17 01:29:48;;;;;;;41.95;36.97;;;;;;;21.04;74.69;100775.09;5013823;28;20117;-60
2022/08/17 01:32:15;;;;;;;41.47;37.38;;;;;;;21.03;74.85;100768.66;5013226;28;20029;-60
2022/08/17 01:34:40;;;;;;;40.65;36.55;;;;;;;20.99;74.78;100770.59;5014258;28;20040;-60
2022/08/17 01:37:06;;;;;;;40.63;36.60;;;;;;;20.99;74.90;100764.19;5013194;28;20018;-60
2022/08/17 01:39:42;;;;;;;39.95;35.83;;;;;;;20.98;74.91;100765.38;5013069;28;20113;-59
2022/08/17 01:42:20;;;;;;;41.97;37.45;;;;;;;20.93;75.25;100758.06;5013453;28;20033;-59
2022/08/17 01:44:46;;;;;;;38.13;34.22;;;;;;;20.96;75.12;100767.75;5013419;28;20351;-59
2022/08/17 01:47:11;;;;;;;40.08;35.78;;;;;;;20.93;75.13;100757.25;5012934;28;20488;-59
2022/08/17 01:49:37;;;;;;;40.75;36.55;;;;;;;20.88;75.63;100756.41;5013143;28;20243;-60
2022/08/17 01:52:08;;;;;;;39.42;35.42;;;;;;;20.86;75.75;100758.78;5013466;28;20030;-59
2022/08/17 01:54:38;;;;;;;40.63;36.42;;;;;;;20.80;75.96;100756.66;5013112;28;20219;-60
2022/08/17 01:57:04;;;;;;;39.55;35.53;;;;;;;20.79;75.72;100752.22;5013044;28;20466;-59
2022/08/17 01:59:29;;;;;;;41.38;37.13;;;;;;;20.77;76.04;100760.25;5012749;28;20116;-59
2022/08/17 02:01:54;;;;;;;40.45;36.38;;;;;;;20.72;76.73;100766.97;5013132;28;20458;-59
2022/08/17 02:04:20;;;;;;;41.40;36.92;;;;;;;20.71;76.13;100757.72;5012513;28;20084;-59
2022/08/17 02:06:45;;;;;;;39.65;35.45;;;;;;;20.72;76.30;100759.34;5011366;28;20113;-59
2022/08/17 02:09:11;;;;;;;41.60;37.15;;;;;;;20.70;76.33;100761.72;5012832;28;20457;-60
2022/08/17 02:11:37;;;;;;;40.33;35.35;;;;;;;20.68;76.43;100757.66;5012784;28;20037;-60
2022/08/17 02:14:04;;;;;;;41.03;36.88;;;;;;;20.65;76.71;100764.03;5012749;28;20092;-60
2022/08/17 02:16:34;;;;;;;42.50;38.20;;;;;;;20.60;77.59;100755.94;5012687;28;20105;-60
2022/08/17 02:19:00;;;;;;;40.20;36.13;;;;;;;20.58;76.91;100748.69;5012614;28;20069;-60
2022/08/17 02:21:26;;;;;;;41.13;37.00;;;;;;;20.56;77.47;100745.44;5012452;28;20033;-60
2022/08/17 02:23:51;;;;;;;43.00;38.60;;;;;;;20.52;77.59;100747.41;5012633;28;20030;-60
2022/08/17 02:26:16;;;;;;;43.40;38.90;;;;;;;20.49;77.91;100759.38;5012389;28;20531;-60
2022/08/17 02:28:42;;;;;;;42.00;37.60;;;;;;;20.47;78.04;100749.72;5012354;28;20045;-60
2022/08/17 02:31:10;;;;;;;41.75;37.47;;;;;;;20.45;77.69;100752.06;5012567;28;20021;-60
2022/08/17 02:33:36;;;;;;;41.72;37.53;;;;;;;20.47;77.40;100750.50;5012331;28;20069;-59
2022/08/17 02:36:10;;;;;;;42.45;38.25;;;;;;;20.42;77.92;100748.81;5012089;28;20026;-59
2022/08/17 02:38:36;;;;;;;41.60;37.28;;;;;;;20.37;78.19;100751.97;5012551;28;20065;-59
2022/08/17 02:41:02;;;;;;;42.65;38.15;;;;;;;20.36;78.40;100747.53;5012249;28;20028;-59
2022/08/17 02:43:27;;;;;;;42.45;38.05;;;;;;;20.34;78.10;100747.09;5012272;28;20017;-60
2022/08/17 02:45:53;;;;;;;42.20;38.00;;;;;;;20.34;78.15;100741.47;5012326;28;20415;-60
2022/08/17 02:48:19;;;;;;;42.95;38.50;;;;;;;20.32;78.26;100743.84;5012251;28;20113;-60
2022/08/17 02:50:45;;;;;;;42.15;37.92;;;;;;;20.27;78.34;100746.97;5011843;28;20385;-60
2022/08/17 02:53:10;;;;;;;41.78;37.55;;;;;;;20.22;78.48;100734.06;5010756;28;20080;-59
2022/08/17 02:55:39;;;;;;;41.13;36.90;;;;;;;20.17;78.44;100725.13;5012308;28;20041;-59
2022/08/17 02:58:05;;;;;;;41.10;36.85;;;;;;;20.20;78.53;100733.63;5012201;28;20034;-60
2022/08/17 03:00:41;;;;;;;40.92;36.80;;;;;;;20.22;78.63;100736.88;5012068;28;20032;-60
2022/08/17 03:03:09;;;;;;;40.97;36.67;;;;;;;20.15;79.42;100727.50;5011999;28;20060;-60
2022/08/17 03:05:36;;;;;;;41.38;36.75;;;;;;;20.13;79.61;100724.25;5011941;28;20373;-60
2022/08/17 03:08:05;;;;;;;40.88;36.75;;;;;;;20.10;79.70;100726.66;5011917;28;20080;-60
2022/08/17 03:10:30;;;;;;;39.55;35.45;;;;;;;20.07;79.53;100718.16;5012266;28;20030;-59
2022/08/17 03:12:56;;;;;;;40.97;36.53;;;;;;;20.08;79.70;100728.19;4994295;28;20033;-59
2022/08/17 03:15:24;;;;;;;41.42;36.92;;;;;;;20.05;79.89;100728.94;5011685;28;20033;-60
2022/08/17 03:17:51;;;;;;;42.95;38.47;;;;;;;20.01;80.68;100734.50;5014516;28;20041;-60
2022/08/17 03:20:17;;;;;;;42.80;38.40;;;;;;;19.92;80.80;100740.34;5016139;28;20533;-59
2022/08/17 03:22:46;;;;;;;43.33;38.80;;;;;;;19.86;81.61;100733.44;5015950;28;20101;-59
2022/08/17 03:25:20;;;;;;;44.67;40.08;;;;;;;19.79;82.02;100736.88;5015612;28;20022;-60
2022/08/17 03:27:46;;;;;;;44.05;39.55;;;;;;;19.76;82.29;100734.00;5015483;28;20034;-59
2022/08/17 03:30:14;;;;;;;45.72;41.15;;;;;;;19.71;82.61;100728.69;5015759;28;20110;-60
2022/08/17 03:32:43;;;;;;;44.33;39.72;;;;;;;19.61;82.83;100716.88;5015666;28;20038;-60
2022/08/17 03:35:11;;;;;;;45.05;40.45;;;;;;;19.62;83.08;100718.50;5015817;28;20495;-61
2022/08/17 03:37:36;;;;;;;43.75;39.35;;;;;;;19.65;82.82;100725.38;5015800;28;20022;-60
2022/08/17 03:40:03;;;;;;;43.17;38.55;;;;;;;19.64;83.29;100732.19;5015927;28;20454;-60
2022/08/17 03:42:29;;;;;;;43.40;38.80;;;;;;;19.63;83.32;100739.78;5015966;28;20029;-60
2022/08/17 03:44:56;;;;;;;42.65;38.33;;;;;;;19.58;83.25;100722.44;5015673;28;20530;-60
2022/08/17 03:58:21;;;;;;;43.80;39.15;;;;;;;19.61;83.40;100741.34;5015939;28;20109;-60
2022/08/17 04:00:48;;;;;;;42.05;37.75;;;;;;;19.67;83.00;100745.47;5015546;28;20430;-59
2022/08/17 04:03:13;;;;;;;44.00;39.55;;;;;;;19.62;83.57;100742.97;5014986;28;20041;-60
2022/08/17 04:05:39;;;;;;;42.38;37.88;;;;;;;19.66;83.26;100749.44;5015143;28;20022;-60
2022/08/17 04:08:04;;;;;;;44.35;39.92;;;;;;;19.60;83.72;100736.91;5015359;28;20211;-59
2022/08/17 04:10:30;;;;;;;43.00;38.65;;;;;;;19.61;83.77;100746.97;5015115;28;20488;-60
2022/08/17 04:12:57;;;;;;;43.92;39.42;;;;;;;19.63;83.72;100750.22;5014999;28;20386;-60
2022/08/17 04:15:23;;;;;;;45.08;40.47;;;;;;;19.62;83.61;100748.59;5015243;28;20125;-60
2022/08/17 04:17:49;;;;;;;44.45;39.80;;;;;;;19.59;84.08;100746.50;5014423;28;20498;-59
2022/08/17 04:20:17;;;;;;;43.28;38.88;;;;;;;19.59;84.15;100754.94;5014932;28;20128;-59
2022/08/17 04:23:02;;;;;;;46.72;41.80;;;;;;;19.55;84.13;100756.88;5014652;28;20026;-59
2022/08/17 04:25:29;;;;;;;46.95;42.30;;;;;;;19.54;84.47;100758.03;5014710;28;20026;-59
2022/08/17 04:27:55;;;;;;;45.38;40.78;;;;;;;19.58;84.39;100761.72;5014073;28;20105;-60
2022/08/17 04:30:21;;;;;;;47.65;42.72;;;;;;;19.53;85.14;100776.06;5014211;28;20397;-60
2022/08/17 04:32:59;;;;;;;46.20;41.40;;;;;;;19.51;84.76;100801.66;5014549;28;20030;-60
2022/08/17 04:35:30;;;;;;;48.35;43.55;;;;;;;19.47;85.83;100814.81;5014732;28;20038;-59
2022/08/17 04:37:56;;;;;;;49.83;44.75;;;;;;;19.33;86.96;100818.91;5014930;28;20029;-59
2022/08/17 04:43:11;;;;;;;49.95;44.83;;;;;;;19.16;88.06;100791.28;5015125;28;20037;-60
2022/08/17 04:45:41;;;;;;;47.40;42.40;;;;;;;19.28;87.96;100798.75;5014328;28;20030;-60
2022/08/17 04:48:07;;;;;;;46.22;41.42;;;;;;;19.28;87.98;100793.16;5014439;28;20033;-59
2022/08/17 04:50:34;;;;;;;46.15;41.38;;;;;;;19.35;87.36;100796.13;5013828;28;20390;-59
2022/08/17 04:53:00;;;;;;;47.10;42.47;;;;;;;19.43;87.01;100794.28;5014761;28;20030;-60
2022/08/17 04:55:26;;;;;;;46.05;41.38;;;;;;;19.47;87.23;100798.78;5014011;28;20104;-59
2022/08/17 04:57:51;;;;;;;45.85;41.08;;;;;;;19.53;86.83;100820.94;5013986;28;20072;-59
2022/08/17 05:00:16;;;;;;;44.33;39.63;;;;;;;19.60;86.07;100838.72;5013889;28;20030;-59
2022/08/17 05:02:49;;;;;;;44.33;39.83;;;;;;;19.69;85.70;100841.31;5013922;28;20030;-59
2022/08/17 05:05:27;;;;;;;43.25;38.85;;;;;;;19.70;85.67;100820.50;5014193;28;20026;-60
2022/08/17 05:07:59;;;;;;;42.72;38.35;;;;;;;19.70;85.93;100819.66;5013966;28;20032;-60
2022/08/17 05:10:27;;;;;;;42.45;37.95;;;;;;;19.72;85.54;100837.78;5013856;28;20073;-59
2022/08/17 05:13:01;;;;;;;42.30;37.70;;;;;;;19.74;85.92;100823.38;5014036;28;20121;-60
2022/08/17 05:15:28;;;;;;;41.53;37.10;;;;;;;19.77;85.34;100831.06;5013709;28;20387;-60
2022/08/17 05:17:54;;;;;;;41.40;37.15;;;;;;;19.84;85.06;100833.22;5013921;28;20030;-60
2022/08/17 05:20:20;;;;;;;42.33;37.90;;;;;;;19.80;85.76;100827.50;5014127;28;20030;-60
2022/08/17 05:22:49;;;;;;;42.55;38.13;;;;;;;19.77;85.73;100829.06;5013707;28;20030;-60
2022/08/17 05:25:20;;;;;;;43.90;39.40;;;;;;;19.73;86.43;100818.94;4996359;28;20032;-60
2022/08/17 05:27:45;;;;;;;42.00;37.80;;;;;;;19.74;85.76;100843.03;5012082;28;20036;-60
2022/08/17 05:30:11;;;;;;;42.65;38.35;;;;;;;19.75;86.17;100827.81;5013754;28;20022;-60
2022/08/17 05:32:37;;;;;;;41.42;37.17;;;;;;;19.75;85.98;100820.19;5014238;28;20040;-60
2022/08/17 05:35:04;;;;;;;40.00;35.78;;;;;;;19.77;86.17;100809.41;5013841;28;20030;-60
2022/08/17 05:37:29;;;;;;;41.92;37.38;;;;;;;19.82;85.59;100802.69;5013553;28;20088;-60
2022/08/17 05:39:54;;;;;;;42.00;37.80;;;;;;;19.88;85.22;100808.84;5013230;28;20029;-60
2022/08/17 05:42:20;;;;;;;42.08;37.70;;;;;;;19.87;85.15;100799.63;5013205;28;20022;-59
2022/08/17 05:44:45;;;;;;;41.72;37.35;;;;;;;19.85;86.00;100804.78;5013643;28;20069;-60
2022/08/17 05:47:11;;;;;;;40.92;36.35;;;;;;;19.86;85.56;100802.78;5013122;28;20087;-60
2022/08/17 05:49:36;;;;;;;40.85;36.70;;;;;;;19.87;85.62;100799.63;5012979;28;20049;-60
2022/08/17 05:52:24;;;;;;;42.90;38.08;;;;;;;19.85;84.88;100795.50;5013465;28;20057;-59
2022/08/17 05:55:13;;;;;;;42.58;38.17;;;;;;;19.93;84.85;100803.75;5013466;28;20061;-59
2022/08/17 05:57:58;;;;;;;41.58;37.17;;;;;;;19.93;84.95;100783.28;5004869;28;20438;-59
2022/08/17 06:00:35;;;;;;;41.25;36.70;;;;;;;20.04;84.70;100787.09;5013512;28;20018;-59
2022/08/17 06:03:22;;;;;;;42.05;37.45;;;;;;;20.11;84.10;100780.81;5013293;28;20036;-60
2022/08/17 06:06:12;;;;;;;42.83;38.28;;;;;;;20.14;84.23;100785.69;5013032;28;20040;-60
2022/08/17 06:09:10;;;;;;;44.75;39.20;;;;;;;20.12;84.46;100778.81;5013047;28;20049;-60
2022/08/17 06:11:45;;;;;;;42.40;37.85;;;;;;;20.20;84.07;100778.56;5013115;28;20087;-60
2022/08/17 06:14:25;;;;;;;41.42;37.20;;;;;;;20.39;83.66;100791.75;5013063;28;20117;-60
2022/08/17 06:16:59;;;;;;;41.08;36.58;;;;;;;20.52;82.46;100792.34;5012817;28;20104;-60
2022/08/17 06:19:40;;;;;;;41.78;37.38;;;;;;;20.55;82.24;100799.22;5012980;28;20358;-60
2022/08/17 06:22:10;;;;;;;41.92;37.47;;;;;;;20.69;81.77;100812.69;5011725;28;20129;-60
2022/08/17 06:24:59;;;;;;;41.90;37.38;;;;;;;20.76;81.23;100814.84;5012943;28;20038;-60
2022/08/17 06:27:34;;;;;;;40.70;36.50;;;;;;;20.79;80.74;100814.91;5012930;28;20064;-60
2022/08/17 06:30:20;;;;;;;40.55;36.33;;;;;;;20.92;80.30;100817.50;5013054;28;20026;-60
2022/08/17 06:32:49;;;;;;;41.00;35.67;;;;;;;20.90;79.62;100812.25;5012795;28;20025;-60
2022/08/17 06:35:24;;;;;;;41.30;36.90;;;;;;;20.92;79.93;100840.78;5012861;28;20445;-59
2022/08/17 06:38:13;;;;;;;40.25;34.22;;;;;;;20.97;79.53;100845.28;5012960;28;20022;-60
2022/08/17 06:40:50;;;;;;;37.15;33.15;;;;;;;20.92;79.33;100840.78;5012317;28;20496;-60
2022/08/17 06:43:47;;;;;;;36.78;32.65;;;;;;;20.94;79.12;100843.22;5012606;28;20197;-60
2022/08/17 06:46:22;;;;;;;37.50;32.90;;;;;;;20.99;78.96;100842.91;5012403;28;20034;-60
2022/08/17 06:49:06;;;;;;;37.08;33.08;;;;;;;21.12;78.62;100851.94;5012150;28;20061;-60
2022/08/17 06:51:42;;;;;;;36.63;32.17;;;;;;;21.14;78.48;100839.13;5012201;28;20063;-60
2022/08/17 06:54:58;;;;;;;37.08;31.75;;;;;;;21.15;77.66;100843.56;5012525;28;20022;-60
2022/08/17 06:57:29;;;;;;;35.20;31.40;;;;;;;21.16;77.53;100847.19;5007078;28;20510;-60
2022/08/17 06:59:56;;;;;;;35.30;31.38;;;;;;;21.24;77.72;100859.34;5012392;28;20393;-60
2022/08/17 07:02:44;;;;;;;34.90;30.58;;;;;;;21.27;77.09;100848.13;5012538;28;20046;-60
2022/08/17 07:05:10;;;;;;;35.97;31.88;;;;;;;21.34;75.95;100853.06;5012286;28;20418;-60
2022/08/17 07:10:24;;;;;;;33.88;30.23;;;;;;;21.20;76.19;100845.22;5012444;28;20049;-60
2022/08/17 07:12:54;;;;;;;34.10;30.40;;;;;;;21.22;76.18;100844.84;5011977;28;20030;-60
2022/08/17 07:15:28;;;;;;;35.65;31.25;;;;;;;21.30;75.51;100857.84;5012251;28;20330;-60
2022/08/17 07:17:54;;;;;;;33.55;29.95;;;;;;;21.32;75.06;100859.09;5012563;28;20053;-59
2022/08/17 07:20:21;;;;;;;35.65;31.05;;;;;;;21.37;75.26;100852.31;4994531;28;20501;-60
2022/08/17 07:23:05;;;;;;;34.78;31.08;;;;;;;21.42;74.98;100862.44;5012215;28;20033;-60
2022/08/17 07:25:31;;;;;;;34.28;30.63;;;;;;;21.40;74.73;100859.97;5012217;28;20069;-59
2022/08/17 07:28:01;;;;;;;34.47;30.70;;;;;;;21.40;74.87;100850.72;5012105;28;20470;-59
2022/08/17 07:30:38;;;;;;;34.50;30.80;;;;;;;21.43;74.53;100850.78;5012620;28;20034;-60
2022/08/17 07:33:18;;;;;;;34.08;30.35;;;;;;;21.40;74.53;100857.16;5012153;28;20030;-60
2022/08/17 07:35:47;;;;;;;34.03;30.30;;;;;;;21.34;74.29;100853.88;5012190;28;20347;-60
2022/08/17 07:38:26;;;;;;;33.35;29.75;;;;;;;21.28;74.62;100854.59;5012054;28;20112;-60
2022/08/17 07:41:07;;;;;;;35.60;31.05;;;;;;;21.37;74.50;100865.56;5012484;28;20117;-60
2022/08/17 07:43:38;;;;;;;33.67;30.02;;;;;;;21.41;74.52;100864.41;5012353;28;20052;-60
2022/08/17 07:48:57;;;;;;;34.47;30.42;;;;;;;21.40;74.75;100876.84;5012567;28;20547;-59
2022/08/17 07:51:29;;;;;;;33.95;30.27;;;;;;;21.46;74.43;100883.78;5011939;28;20038;-59
2022/08/17 07:53:58;;;;;;;34.63;30.85;;;;;;;21.45;74.23;100878.53;5011631;28;20073;-61
2022/08/17 07:56:45;;;;;;;34.08;30.48;;;;;;;21.62;74.28;100899.72;5011857;28;20032;-60
2022/08/17 07:59:23;;;;;;;34.45;30.48;;;;;;;21.63;73.86;100904.94;5012076;28;20018;-60
2022/08/17 08:02:01;;;;;;;34.78;31.15;;;;;;;21.69;73.53;100902.63;5011459;28;20034;-60
2022/08/17 08:04:27;;;;;;;34.95;31.15;;;;;;;21.71;73.04;100913.53;5014662;28;20044;-60
2022/08/17 08:06:56;;;;;;;35.05;31.25;;;;;;;21.64;73.22;100900.16;5015562;28;20030;-60
2022/08/17 08:09:31;;;;;;;34.65;30.95;;;;;;;21.65;73.13;100908.19;5015668;28;20053;-60
2022/08/17 08:11:59;;;;;;;35.25;31.45;;;;;;;21.80;72.80;100919.69;5015554;28;20037;-60
2022/08/17 08:14:37;;;;;;;34.88;31.15;;;;;;;21.80;72.26;100902.78;5015470;28;20025;-60
2022/08/17 08:17:06;;;;;;;35.95;31.08;;;;;;;21.93;72.26;100911.78;5015013;28;20439;-60
2022/08/17 08:19:32;;;;;;;34.53;30.90;;;;;;;21.88;72.09;100912.09;5014822;28;20034;-60
2022/08/17 08:22:09;;;;;;;35.08;31.23;;;;;;;21.85;72.28;100896.81;5015331;28;20022;-60
2022/08/17 08:24:45;;;;;;;36.33;32.42;;;;;;;21.86;72.22;100906.06;5015425;28;20029;-60
2022/08/17 08:27:32;;;;;;;34.78;30.98;;;;;;;21.92;72.28;100901.72;5014817;28;20033;-60
2022/08/17 08:30:08;;;;;;;35.72;31.25;;;;;;;22.00;71.96;100897.78;5015182;28;20037;-60
2022/08/17 08:33:01;;;;;;;36.75;32.72;;;;;;;22.14;71.16;100880.25;5014762;28;20030;-60
2022/08/17 08:35:36;;;;;;;35.22;30.48;;;;;;;22.12;71.24;100863.75;5015140;28;20057;-60
2022/08/17 08:38:35;;;;;;;34.60;30.90;;;;;;;22.24;71.24;100868.28;5014872;28;20030;-60
2022/08/17 08:41:27;;;;;;;35.40;30.88;;;;;;;22.40;70.95;100859.63;5014772;28;20101;-60
2022/08/17 08:44:30;;;;;;;35.83;31.25;;;;;;;22.58;70.46;100887.16;4986140;28;20042;-60
2022/08/17 08:47:33;;;;;;;35.22;31.33;;;;;;;22.73;69.64;100914.28;4984020;28;20086;-59
2022/08/17 08:50:07;;;;;;;34.65;30.90;;;;;;;22.83;69.58;100915.59;5014363;28;20046;-59
2022/08/17 08:53:20;;;;;;;35.90;32.10;;;;;;;22.95;68.39;100905.22;4997164;28;20484;-59
2022/08/17 08:55:51;;;;;;;36.28;31.92;;;;;;;22.94;67.05;100897.97;4995123;28;20045;-60
2022/08/17 08:58:35;;;;;;;35.10;31.40;;;;;;;22.96;67.31;100885.09;5014285;28;20030;-60
2022/08/17 09:01:08;;;;;;;35.25;30.70;;;;;;;22.99;67.22;100878.66;5014479;28;20152;-60
2022/08/17 09:03:46;;;;;;;35.30;31.60;;;;;;;23.24;66.45;100880.88;5014428;28;20133;-60
2022/08/17 09:06:43;;;;;;;34.58;30.92;;;;;;;23.27;66.55;100877.28;5014010;28;20036;-60
2022/08/17 09:09:08;;;;;;;34.75;30.50;;;;;;;23.43;66.11;100871.31;5014360;28;20155;-60
2022/08/17 09:12:03;;;;;;;34.97;31.03;;;;;;;23.44;65.84;100875.75;5014165;28;20501;-60
2022/08/17 09:14:43;;;;;;;35.33;31.42;;;;;;;23.47;66.09;100882.66;5013331;28;20292;-60
2022/08/17 09:17:17;;;;;;;35.95;32.10;;;;;;;23.40;66.21;100885.41;5014325;28;20037;-60
2022/08/17 09:19:48;;;;;;;37.03;32.92;;;;;;;23.45;65.46;100891.50;5014078;28;20530;-60
2022/08/17 09:22:32;;;;;;;35.20;31.30;;;;;;;23.55;65.70;100898.41;5013964;28;20029;-60
2022/08/17 09:25:14;;;;;;;36.03;32.13;;;;;;;23.68;65.13;100898.88;5013951;28;20057;-60
2022/08/17 09:28:15;;;;;;;35.72;31.90;;;;;;;23.63;65.52;100902.91;5013822;28;20084;-60
2022/08/17 09:30:49;;;;;;;34.45;30.75;;;;;;;23.66;64.45;100918.22;5013590;28;20040;-60
2022/08/17 09:33:21;;;;;;;34.53;30.85;;;;;;;23.67;64.06;100906.53;5013723;28;20072;-60
2022/08/17 09:36:15;;;;;;;34.03;30.42;;;;;;;23.72;64.59;100918.66;5013306;28;20037;-60
2022/08/17 09:39:01;;;;;;;35.75;31.92;;;;;;;23.77;64.65;100919.09;5011345;28;20045;-60
2022/08/17 09:41:42;;;;;;;35.70;31.80;;;;;;;23.60;65.08;100923.44;5013325;28;20105;-60
2022/08/17 09:44:40;;;;;;;35.13;31.27;;;;;;;23.57;64.93;100924.22;5013348;28;20105;-60
2022/08/17 09:47:30;;;;;;;35.55;31.35;;;;;;;23.59;64.56;100935.13;5010440;28;20042;-60
2022/08/17 09:50:04;;;;;;;35.58;31.77;;;;;;;23.39;64.95;100946.72;5013305;28;20057;-60
2022/08/17 09:52:30;;;;;;;36.88;31.83;;;;;;;23.40;65.17;100956.81;5013490;28;20064;-60
2022/08/17 09:54:58;;;;;;;35.40;31.50;;;;;;;23.40;65.34;100968.09;5013153;28;20025;-60
2022/08/17 09:57:39;;;;;;;32.60;28.95;;;;;;;23.44;66.10;100980.19;5013052;28;20030;-59
2022/08/17 10:00:10;;;;;;;33.75;29.90;;;;;;;23.44;66.54;100982.22;5013306;28;20038;-59
2022/08/17 10:02:52;;;;;;;36.25;30.20;;;;;;;23.29;67.28;100981.31;5013566;28;20068;-59
2022/08/17 10:05:55;;;;;;;35.70;31.92;;;;;;;23.26;68.32;100996.19;5012614;28;20441;-59
2022/08/17 10:08:24;;;;;;;36.97;33.13;;;;;;;23.06;68.83;100997.22;5013398;28;20029;-59
2022/08/17 10:11:05;;;;;;;36.70;31.67;;;;;;;22.98;70.21;100997.53;5012849;28;20033;-59
2022/08/17 10:13:58;;;;;;;36.35;32.45;;;;;;;22.90;70.17;100993.84;5012720;28;20208;-59
2022/08/17 10:16:29;;;;;;;36.25;32.50;;;;;;;22.74;72.74;100988.44;5012943;28;20120;-59
2022/08/17 10:19:28;;;;;;;36.75;32.60;;;;;;;22.68;72.44;101001.25;5012718;28;20030;-59
2022/08/17 10:27:39;;;;;;;38.53;34.53;;;;;;;22.23;76.44;100998.28;5012573;28;20051;-59
2022/08/17 10:30:09;;;;;;;38.92;34.67;;;;;;;22.03;78.35;101001.25;5012931;28;20034;-59
2022/08/17 10:32:44;;;;;;;40.63;36.30;;;;;;;21.90;79.42;101000.69;5012453;28;20111;-59
2022/08/17 10:35:27;;;;;;;40.40;36.00;;;;;;;21.73;80.35;101013.28;5012538;28;20112;-59
2022/08/17 10:38:30;;;;;;;39.40;35.33;;;;;;;21.65;80.13;101012.38;5012909;28;20407;-59
2022/08/17 10:41:13;;;;;;;40.15;35.78;;;;;;;21.57;82.66;101010.59;5012486;28;20026;-59
2022/08/17 10:44:03;;;;;;;39.53;35.22;;;;;;;21.55;82.08;100995.28;5012669;28;20076;-58
2022/08/17 10:46:28;;;;;;;41.47;37.17;;;;;;;21.39;84.38;100973.75;5012561;28;20040;-59
2022/08/17 10:49:29;;;;;;;41.80;37.15;;;;;;;21.26;83.19;100967.50;5012528;28;20029;-59
2022/08/17 10:51:58;;;;;;;44.17;39.75;;;;;;;20.99;87.68;100967.44;5011272;28;20038;-59
2022/08/17 10:54:23;;;;;;;45.72;40.92;;;;;;;20.74;88.16;100964.19;5012708;28;20084;-59
2022/08/17 10:56:51;;;;;;;44.50;39.80;;;;;;;20.60;90.53;100961.88;5012337;28;20029;-59
2022/08/17 10:59:35;;;;;;;44.40;39.70;;;;;;;20.63;89.17;100966.78;5012163;28;20034;-58
2022/08/17 11:02:13;;;;;;;42.47;37.97;;;;;;;20.69;91.10;100956.84;5012217;28;20076;-58
2022/08/17 11:04:48;;;;;;;45.08;40.38;;;;;;;20.67;91.87;100958.41;5012153;28;20099;-59
2022/08/17 11:07:42;;;;;;;45.35;40.65;;;;;;;20.67;90.29;100956.44;5010757;28;20454;-58
2022/08/17 11:10:49;;;;;;;44.65;39.97;;;;;;;20.66;90.49;100942.72;5012253;28;20125;-59
2022/08/17 11:13:22;;;;;;;45.80;41.00;;;;;;;20.66;92.92;100943.56;5012248;28;20113;-58
2022/08/17 11:16:12;;;;;;;48.15;43.15;;;;;;;20.69;93.59;100951.22;5012120;28;20328;-59
2022/08/17 11:18:55;;;;;;;45.05;40.55;;;;;;;20.72;91.88;100958.13;5012094;28;20104;-59
2022/08/17 11:21:57;;;;;;;43.03;38.47;;;;;;;20.77;90.41;100962.66;5010910;28;20026;-59
2022/08/17 11:24:46;;;;;;;44.55;39.90;;;;;;;20.81;89.63;100972.78;5012119;28;20038;-60
2022/08/17 11:27:20;;;;;;;43.75;39.05;;;;;;;20.76;90.68;100977.88;5012062;28;20029;-59
2022/08/17 11:29:58;;;;;;;45.22;40.53;;;;;;;20.67;91.16;100967.66;5011567;28;20072;-59
2022/08/17 11:32:43;;;;;;;45.90;41.10;;;;;;;20.65;92.58;100970.03;5012027;28;20101;-59
2022/08/17 11:35:21;;;;;;;45.95;40.88;;;;;;;20.72;91.76;100980.59;5012122;28;20041;-60
2022/08/17 11:38:17;;;;;;;49.65;44.53;;;;;;;20.70;92.58;100982.97;5012849;28;20042;-59
2022/08/17 11:41:21;;;;;;;47.25;42.25;;;;;;;20.77;91.25;100973.88;5015567;28;20022;-59
2022/08/17 11:44:23;;;;;;;46.40;41.47;;;;;;;20.76;91.35;100984.31;5015504;28;20053;-59
2022/08/17 11:52:44;;;;;;;47.55;42.47;;;;;;;20.64;92.90;101002.13;5015808;28;20052;-59
2022/08/17 11:55:33;;;;;;;44.88;40.17;;;;;;;20.66;91.76;101011.00;5015298;28;20046;-58
2022/08/17 11:58:21;;;;;;;46.08;41.15;;;;;;;20.77;91.81;101016.06;5015203;28;20145;-58
2022/08/17 12:00:50;;;;;;;45.63;40.92;;;;;;;20.78;90.98;101026.94;5014858;28;20117;-59
2022/08/17 12:03:31;;;;;;;45.60;40.85;;;;;;;20.82;92.29;101022.19;5015192;28;20030;-58
2022/08/17 12:06:09;;;;;;;47.35;42.47;;;;;;;20.76;91.05;101032.09;5015338;28;20061;-59
2022/08/17 12:08:42;;;;;;;46.40;41.60;;;;;;;20.74;91.87;101042.91;5015129;28;20446;-59
2022/08/17 12:11:15;;;;;;;45.00;40.30;;;;;;;20.85;90.99;101051.56;5015293;28;20112;-58